createdAt,value
2018-06-11T00:00:31.947Z,0
2018-06-11T00:01:32.666Z,0
2018-06-11T00:02:33.397Z,0
2018-06-11T00:03:34.119Z,0
2018-06-11T00:04:34.961Z,0
2018-06-11T00:05:35.677Z,0
2018-06-11T00:06:36.396Z,0
2018-06-11T00:07:37.114Z,0
2018-06-11T00:08:37.846Z,0
2018-06-11T00:09:38.881Z,0
2018-06-11T00:10:39.589Z,0
2018-06-11T00:11:40.318Z,0
2018-06-11T00:12:41.050Z,0
2018-06-11T00:13:41.762Z,0
2018-06-11T00:14:42.540Z,0
2018-06-11T00:15:43.259Z,0
2018-06-11T00:16:43.994Z,0
2018-06-11T00:17:44.716Z,0
2018-06-11T00:18:45.453Z,0
2018-06-11T00:19:46.514Z,0
2018-06-11T00:20:47.249Z,0
2018-06-11T00:21:48.235Z,0
2018-06-11T00:22:48.962Z,0
2018-06-11T00:23:49.683Z,0
2018-06-11T00:24:50.453Z,0
2018-06-11T00:25:51.188Z,0
2018-06-11T00:26:51.916Z,0
2018-06-11T00:27:52.635Z,0
2018-06-11T00:28:53.385Z,0
2018-06-11T00:29:54.089Z,0
2018-06-11T00:30:54.829Z,0
2018-06-11T00:31:55.548Z,0
2018-06-11T00:32:56.272Z,0
2018-06-11T00:33:57.002Z,0
2018-06-11T00:34:58.074Z,0
2018-06-11T00:35:58.799Z,0
2018-06-11T00:36:59.764Z,0
2018-06-11T00:38:00.496Z,0
2018-06-11T00:39:01.209Z,0
2018-06-11T00:40:01.979Z,0
2018-06-11T00:41:02.705Z,0
2018-06-11T00:42:03.432Z,0
2018-06-11T00:43:04.164Z,0
2018-06-11T00:44:04.891Z,0
2018-06-11T00:45:05.609Z,0
2018-06-11T00:46:06.337Z,0
2018-06-11T00:47:07.057Z,0
2018-06-11T00:48:07.790Z,0
2018-06-11T00:49:08.513Z,0
2018-06-11T00:50:09.227Z,0
2018-06-11T00:51:10.194Z,0
2018-06-11T00:52:10.905Z,0
2018-06-11T00:53:11.636Z,0
2018-06-11T00:54:12.363Z,0
2018-06-11T00:55:13.075Z,0
2018-06-11T00:56:13.811Z,0
2018-06-11T00:57:14.537Z,0
2018-06-11T00:58:15.271Z,0
2018-06-11T00:59:15.998Z,0
2018-06-11T01:00:16.716Z,0
2018-06-11T01:01:17.436Z,0
2018-06-11T01:02:18.175Z,0
2018-06-11T01:03:18.887Z,0
2018-06-11T01:04:19.607Z,0
2018-06-11T01:05:20.396Z,0
2018-06-11T01:06:21.374Z,0
2018-06-11T01:07:22.100Z,0
2018-06-11T01:08:22.824Z,0
2018-06-11T01:09:23.548Z,0
2018-06-11T01:10:24.261Z,0
2018-06-11T01:11:25.332Z,0
2018-06-11T01:12:26.057Z,0
2018-06-11T01:13:26.779Z,0
2018-06-11T01:14:27.523Z,0
2018-06-11T01:15:28.250Z,0
2018-06-11T01:16:29.334Z,0
2018-06-11T01:17:30.056Z,0
2018-06-11T01:18:30.781Z,0
2018-06-11T01:19:31.499Z,0
2018-06-11T01:20:32.466Z,0
2018-06-11T01:21:33.340Z,0
2018-06-11T01:22:34.056Z,0
2018-06-11T01:23:34.771Z,0
2018-06-11T01:24:35.485Z,0
2018-06-11T01:25:36.214Z,0
2018-06-11T01:26:36.992Z,0
2018-06-11T01:27:37.721Z,0
2018-06-11T01:28:38.697Z,0
2018-06-11T01:29:39.421Z,0
2018-06-11T01:30:40.150Z,0
2018-06-11T01:31:40.889Z,0
2018-06-11T01:32:41.616Z,0
2018-06-11T01:33:42.340Z,0
2018-06-11T01:34:43.066Z,0
2018-06-11T01:35:44.053Z,0
2018-06-11T01:36:44.779Z,0
2018-06-11T01:37:45.554Z,0
2018-06-11T01:38:46.280Z,0
2018-06-11T01:39:47.007Z,0
2018-06-11T01:40:47.721Z,0
2018-06-11T01:41:48.453Z,0
2018-06-11T01:42:49.522Z,0
2018-06-11T01:43:50.255Z,0
2018-06-11T01:44:50.988Z,0
2018-06-11T01:45:51.723Z,0
2018-06-11T01:46:52.458Z,0
2018-06-11T01:47:53.181Z,0
2018-06-11T01:48:54.299Z,0
2018-06-11T01:49:55.364Z,0
2018-06-11T01:50:56.083Z,0
2018-06-11T01:51:57.068Z,0
2018-06-11T01:52:57.797Z,0
2018-06-11T01:53:58.521Z,0
2018-06-11T01:54:59.241Z,0
2018-06-11T01:56:00.006Z,0
2018-06-11T01:57:00.947Z,0
2018-06-11T01:58:01.677Z,0
2018-06-11T01:59:02.651Z,0
2018-06-11T02:00:03.620Z,0
2018-06-11T02:01:04.330Z,0
2018-06-11T02:02:05.058Z,0
2018-06-11T02:03:05.782Z,0
2018-06-11T02:04:06.502Z,0
2018-06-11T02:05:07.381Z,0
2018-06-11T02:06:08.091Z,0
2018-06-11T02:07:08.826Z,0
2018-06-11T02:08:09.547Z,0
2018-06-11T02:09:10.263Z,0
2018-06-11T02:10:10.990Z,0
2018-06-11T02:11:11.965Z,0
2018-06-11T02:12:12.684Z,0
2018-06-11T02:13:13.440Z,0
2018-06-11T02:14:14.171Z,0
2018-06-11T02:15:14.911Z,0
2018-06-11T02:16:15.619Z,0
2018-06-11T02:17:16.368Z,0
2018-06-11T02:18:17.093Z,0
2018-06-11T02:19:18.073Z,0
2018-06-11T02:20:18.782Z,0
2018-06-11T02:21:19.522Z,0
2018-06-11T02:22:20.522Z,0
2018-06-11T02:23:21.238Z,0
2018-06-11T02:24:21.964Z,0
2018-06-11T02:25:22.679Z,0
2018-06-11T02:26:23.430Z,0
2018-06-11T02:27:24.246Z,0
2018-06-11T02:28:24.971Z,0
2018-06-11T02:29:25.716Z,0
2018-06-11T02:30:26.433Z,0
2018-06-11T02:31:27.170Z,0
2018-06-11T02:32:27.890Z,0
2018-06-11T02:33:28.609Z,0
2018-06-11T02:34:29.580Z,0
2018-06-11T02:35:30.306Z,0
2018-06-11T02:36:31.018Z,0
2018-06-11T02:37:31.755Z,0
2018-06-11T02:38:32.478Z,0
2018-06-11T02:39:33.196Z,0
2018-06-11T02:40:34.167Z,0
2018-06-11T02:41:35.141Z,0
2018-06-11T02:42:36.129Z,0
2018-06-11T02:43:36.896Z,0
2018-06-11T02:44:37.619Z,0
2018-06-11T02:45:38.455Z,0
2018-06-11T02:46:39.193Z,0
2018-06-11T02:47:40.419Z,0
2018-06-11T02:48:41.197Z,0
2018-06-11T02:49:42.410Z,0
2018-06-11T02:50:43.156Z,0
2018-06-11T02:51:44.088Z,0
2018-06-11T02:52:44.848Z,0
2018-06-11T02:53:45.779Z,0
2018-06-11T02:54:46.693Z,0
2018-06-11T02:55:47.544Z,0
2018-06-11T02:56:48.306Z,0
2018-06-11T02:57:49.475Z,0
2018-06-11T02:58:50.928Z,5
2018-06-11T02:59:51.706Z,5
2018-06-11T03:00:52.864Z,5
2018-06-11T03:01:53.595Z,5
2018-06-11T03:02:54.524Z,5
2018-06-11T03:03:55.327Z,5
2018-06-11T03:04:56.141Z,5
2018-06-11T03:05:56.892Z,5
2018-06-11T03:06:57.679Z,5
2018-06-11T03:07:58.820Z,5
2018-06-11T03:08:59.639Z,11
2018-06-11T03:10:00.879Z,11
2018-06-11T03:11:01.611Z,11
2018-06-11T03:12:02.893Z,11
2018-06-11T03:13:03.645Z,11
2018-06-11T03:14:04.460Z,11
2018-06-11T03:15:05.177Z,11
2018-06-11T03:16:05.911Z,16
2018-06-11T03:17:06.642Z,16
2018-06-11T03:18:07.375Z,16
2018-06-11T03:19:08.105Z,16
2018-06-11T03:20:08.831Z,16
2018-06-11T03:21:09.558Z,22
2018-06-11T03:22:10.291Z,22
2018-06-11T03:23:11.023Z,22
2018-06-11T03:24:11.748Z,22
2018-06-11T03:25:12.496Z,28
2018-06-11T03:26:13.218Z,28
2018-06-11T03:27:14.314Z,33
2018-06-11T03:28:15.041Z,33
2018-06-11T03:29:15.772Z,39
2018-06-11T03:30:16.496Z,39
2018-06-11T03:31:17.222Z,39
2018-06-11T03:32:18.212Z,39
2018-06-11T03:33:18.930Z,39
2018-06-11T03:34:19.650Z,39
2018-06-11T03:35:20.388Z,39
2018-06-11T03:36:21.111Z,39
2018-06-11T03:37:22.095Z,39
2018-06-11T03:38:22.822Z,39
2018-06-11T03:39:23.660Z,45
2018-06-11T03:40:24.389Z,45
2018-06-11T03:41:25.122Z,45
2018-06-11T03:42:25.888Z,45
2018-06-11T03:43:26.622Z,45
2018-06-11T03:44:27.415Z,45
2018-06-11T03:45:28.142Z,45
2018-06-11T03:46:28.873Z,50
2018-06-11T03:47:29.601Z,50
2018-06-11T03:48:30.337Z,50
2018-06-11T03:49:31.065Z,56
2018-06-11T03:50:31.790Z,56
2018-06-11T03:51:32.768Z,61
2018-06-11T03:52:33.498Z,61
2018-06-11T03:53:34.229Z,56
2018-06-11T03:54:34.967Z,56
2018-06-11T03:55:35.995Z,56
2018-06-11T03:56:36.751Z,61
2018-06-11T03:57:37.733Z,67
2018-06-11T03:58:38.456Z,67
2018-06-11T03:59:39.180Z,67
2018-06-11T04:00:39.937Z,67
2018-06-11T04:01:40.642Z,67
2018-06-11T04:02:41.401Z,73
2018-06-11T04:03:42.128Z,78
2018-06-11T04:04:42.857Z,78
2018-06-11T04:05:43.580Z,78
2018-06-11T04:06:44.669Z,78
2018-06-11T04:07:45.391Z,78
2018-06-11T04:08:46.127Z,84
2018-06-11T04:09:46.861Z,84
2018-06-11T04:10:47.851Z,90
2018-06-11T04:11:48.556Z,90
2018-06-11T04:12:49.278Z,90
2018-06-11T04:13:50.158Z,90
2018-06-11T04:14:50.901Z,90
2018-06-11T04:15:51.635Z,90
2018-06-11T04:16:52.374Z,90
2018-06-11T04:17:53.103Z,90
2018-06-11T04:18:53.869Z,90
2018-06-11T04:19:54.855Z,95
2018-06-11T04:20:55.587Z,95
2018-06-11T04:21:56.320Z,95
2018-06-11T04:22:57.055Z,101
2018-06-11T04:23:57.792Z,101
2018-06-11T04:24:58.520Z,106
2018-06-11T04:25:59.263Z,106
2018-06-11T04:26:59.994Z,112
2018-06-11T04:28:00.727Z,118
2018-06-11T04:29:01.464Z,123
2018-06-11T04:30:02.188Z,123
2018-06-11T04:31:02.923Z,123
2018-06-11T04:32:03.796Z,129
2018-06-11T04:33:04.539Z,140
2018-06-11T04:34:05.271Z,157
2018-06-11T04:35:05.992Z,168
2018-06-11T04:36:06.722Z,168
2018-06-11T04:37:07.842Z,168
2018-06-11T04:38:08.573Z,174
2018-06-11T04:39:09.548Z,180
2018-06-11T04:40:10.273Z,185
2018-06-11T04:41:11.005Z,191
2018-06-11T04:42:11.737Z,191
2018-06-11T04:43:12.475Z,191
2018-06-11T04:44:13.215Z,191
2018-06-11T04:45:13.979Z,185
2018-06-11T04:46:14.681Z,191
2018-06-11T04:47:15.415Z,202
2018-06-11T04:48:16.133Z,208
2018-06-11T04:49:16.862Z,213
2018-06-11T04:50:17.589Z,208
2018-06-11T04:51:18.321Z,208
2018-06-11T04:52:19.056Z,213
2018-06-11T04:53:19.784Z,219
2018-06-11T04:54:20.502Z,225
2018-06-11T04:55:21.236Z,230
2018-06-11T04:56:22.216Z,236
2018-06-11T04:57:22.951Z,241
2018-06-11T04:58:23.681Z,247
2018-06-11T04:59:24.431Z,247
2018-06-11T05:00:25.152Z,247
2018-06-11T05:01:25.892Z,253
2018-06-11T05:02:26.636Z,258
2018-06-11T05:03:27.357Z,270
2018-06-11T05:04:28.085Z,264
2018-06-11T05:05:28.812Z,270
2018-06-11T05:06:29.536Z,281
2018-06-11T05:07:30.261Z,298
2018-06-11T05:08:30.988Z,315
2018-06-11T05:09:31.714Z,326
2018-06-11T05:10:32.435Z,337
2018-06-11T05:11:33.160Z,354
2018-06-11T05:12:33.898Z,360
2018-06-11T05:13:34.628Z,360
2018-06-11T05:14:35.378Z,360
2018-06-11T05:15:36.116Z,360
2018-06-11T05:16:36.850Z,365
2018-06-11T05:17:37.576Z,371
2018-06-11T05:18:38.567Z,365
2018-06-11T05:19:39.287Z,348
2018-06-11T05:20:40.020Z,348
2018-06-11T05:21:40.749Z,348
2018-06-11T05:22:41.491Z,360
2018-06-11T05:23:42.216Z,365
2018-06-11T05:24:42.943Z,365
2018-06-11T05:25:43.820Z,360
2018-06-11T05:26:44.797Z,360
2018-06-11T05:27:45.535Z,360
2018-06-11T05:28:46.325Z,376
2018-06-11T05:29:46.994Z,393
2018-06-11T05:30:48.130Z,405
2018-06-11T05:31:48.860Z,410
2018-06-11T05:32:49.592Z,410
2018-06-11T05:33:50.322Z,399
2018-06-11T05:34:51.102Z,393
2018-06-11T05:35:51.869Z,382
2018-06-11T05:36:52.654Z,382
2018-06-11T05:37:53.814Z,382
2018-06-11T05:38:54.790Z,371
2018-06-11T05:39:55.514Z,371
2018-06-11T05:40:56.240Z,410
2018-06-11T05:41:57.215Z,450
2018-06-11T05:42:57.951Z,472
2018-06-11T05:43:58.680Z,489
2018-06-11T05:44:59.413Z,500
2018-06-11T05:46:00.133Z,511
2018-06-11T05:47:00.864Z,528
2018-06-11T05:48:01.629Z,545
2018-06-11T05:49:02.339Z,556
2018-06-11T05:50:03.064Z,590
2018-06-11T05:51:03.800Z,579
2018-06-11T05:52:04.523Z,540
2018-06-11T05:53:05.259Z,450
2018-06-11T05:54:05.947Z,455
2018-06-11T05:55:06.725Z,472
2018-06-11T05:56:07.405Z,450
2018-06-11T05:57:08.088Z,455
2018-06-11T05:58:08.771Z,472
2018-06-11T05:59:09.452Z,489
2018-06-11T06:00:10.127Z,450
2018-06-11T06:01:10.914Z,461
2018-06-11T06:02:11.594Z,511
2018-06-11T06:03:12.524Z,641
2018-06-11T06:04:13.215Z,725
2018-06-11T06:05:14.141Z,753
2018-06-11T06:06:15.181Z,765
2018-06-11T06:07:15.870Z,720
2018-06-11T06:08:16.549Z,669
2018-06-11T06:09:17.232Z,630
2018-06-11T06:10:17.928Z,624
2018-06-11T06:11:18.652Z,635
2018-06-11T06:12:19.387Z,646
2018-06-11T06:13:20.113Z,675
2018-06-11T06:14:21.005Z,658
2018-06-11T06:15:21.734Z,596
2018-06-11T06:16:22.469Z,585
2018-06-11T06:17:23.199Z,601
2018-06-11T06:18:24.180Z,624
2018-06-11T06:19:25.169Z,630
2018-06-11T06:20:25.912Z,630
2018-06-11T06:21:26.656Z,624
2018-06-11T06:22:27.633Z,630
2018-06-11T06:23:28.368Z,641
2018-06-11T06:24:29.146Z,641
2018-06-11T06:25:29.873Z,646
2018-06-11T06:26:30.602Z,641
2018-06-11T06:27:31.341Z,646
2018-06-11T06:28:32.066Z,641
2018-06-11T06:29:32.799Z,641
2018-06-11T06:30:33.520Z,630
2018-06-11T06:31:34.250Z,618
2018-06-11T06:32:34.944Z,618
2018-06-11T06:33:35.618Z,624
2018-06-11T06:34:36.366Z,635
2018-06-11T06:35:37.030Z,646
2018-06-11T06:36:37.999Z,675
2018-06-11T06:37:38.724Z,691
2018-06-11T06:38:39.456Z,691
2018-06-11T06:39:40.211Z,680
2018-06-11T06:40:40.915Z,686
2018-06-11T06:41:41.649Z,697
2018-06-11T06:42:42.382Z,697
2018-06-11T06:43:43.109Z,703
2018-06-11T06:44:43.994Z,714
2018-06-11T06:45:44.729Z,720
2018-06-11T06:46:45.462Z,725
2018-06-11T06:47:46.183Z,731
2018-06-11T06:48:46.925Z,736
2018-06-11T06:49:47.708Z,759
2018-06-11T06:50:48.450Z,787
2018-06-11T06:51:49.178Z,821
2018-06-11T06:52:49.920Z,843
2018-06-11T06:53:50.671Z,843
2018-06-11T06:54:51.400Z,849
2018-06-11T06:55:52.480Z,871
2018-06-11T06:56:53.207Z,860
2018-06-11T06:57:53.935Z,838
2018-06-11T06:58:54.653Z,815
2018-06-11T06:59:55.380Z,815
2018-06-11T07:00:56.201Z,826
2018-06-11T07:01:56.890Z,843
2018-06-11T07:02:57.571Z,866
2018-06-11T07:03:58.301Z,860
2018-06-11T07:04:59.026Z,832
2018-06-11T07:05:59.752Z,798
2018-06-11T07:07:00.730Z,770
2018-06-11T07:08:01.517Z,765
2018-06-11T07:09:02.186Z,770
2018-06-11T07:10:02.920Z,770
2018-06-11T07:11:03.645Z,765
2018-06-11T07:12:04.381Z,759
2018-06-11T07:13:05.167Z,759
2018-06-11T07:14:06.030Z,765
2018-06-11T07:15:06.743Z,765
2018-06-11T07:16:07.755Z,776
2018-06-11T07:17:08.489Z,793
2018-06-11T07:18:09.226Z,815
2018-06-11T07:19:09.950Z,815
2018-06-11T07:20:10.721Z,793
2018-06-11T07:21:11.421Z,781
2018-06-11T07:22:12.145Z,770
2018-06-11T07:23:13.142Z,776
2018-06-11T07:24:13.871Z,787
2018-06-11T07:25:14.618Z,810
2018-06-11T07:26:15.344Z,826
2018-06-11T07:27:16.079Z,849
2018-06-11T07:28:16.904Z,855
2018-06-11T07:29:17.627Z,855
2018-06-11T07:30:18.366Z,855
2018-06-11T07:31:19.144Z,866
2018-06-11T07:32:19.826Z,871
2018-06-11T07:33:20.547Z,888
2018-06-11T07:34:21.272Z,900
2018-06-11T07:35:22.000Z,928
2018-06-11T07:36:22.741Z,945
2018-06-11T07:37:23.473Z,967
2018-06-11T07:38:24.203Z,973
2018-06-11T07:39:24.935Z,984
2018-06-11T07:40:25.933Z,995
2018-06-11T07:41:26.668Z,1001
2018-06-11T07:42:27.651Z,1001
2018-06-11T07:43:28.389Z,1068
2018-06-11T07:44:29.128Z,1006
2018-06-11T07:45:29.853Z,1018
2018-06-11T07:46:30.579Z,1074
2018-06-11T07:47:31.311Z,1080
2018-06-11T07:48:31.987Z,1029
2018-06-11T07:49:32.925Z,1035
2018-06-11T07:50:33.659Z,1068
2018-06-11T07:51:34.447Z,1248
2018-06-11T07:52:35.182Z,1192
2018-06-11T07:53:36.118Z,1170
2018-06-11T07:54:36.849Z,1141
2018-06-11T07:55:37.596Z,1130
2018-06-11T07:56:38.667Z,1130
2018-06-11T07:57:39.406Z,1119
2018-06-11T07:58:40.143Z,1119
2018-06-11T07:59:40.870Z,1096
2018-06-11T08:00:41.609Z,1158
2018-06-11T08:01:42.397Z,1198
2018-06-11T08:02:43.148Z,1299
2018-06-11T08:03:43.896Z,1428
2018-06-11T08:04:44.621Z,2002
2018-06-11T08:05:45.354Z,1445
2018-06-11T08:06:46.029Z,1524
2018-06-11T08:07:46.970Z,1766
2018-06-11T08:08:47.650Z,1586
2018-06-11T08:09:48.330Z,1676
2018-06-11T08:10:49.018Z,1541
2018-06-11T08:11:49.700Z,1530
2018-06-11T08:12:50.749Z,1541
2018-06-11T08:13:51.485Z,1490
2018-06-11T08:14:52.202Z,1411
2018-06-11T08:15:52.932Z,1417
2018-06-11T08:16:53.666Z,1490
2018-06-11T08:17:54.407Z,1350
2018-06-11T08:18:55.133Z,1271
2018-06-11T08:19:55.865Z,1237
2018-06-11T08:20:56.600Z,1226
2018-06-11T08:21:57.580Z,1203
2018-06-11T08:22:58.305Z,1237
2018-06-11T08:23:59.040Z,1265
2018-06-11T08:24:59.761Z,1327
2018-06-11T08:26:00.748Z,1546
2018-06-11T08:27:01.487Z,1546
2018-06-11T08:28:02.218Z,1417
2018-06-11T08:29:03.194Z,1468
2018-06-11T08:30:03.943Z,1552
2018-06-11T08:31:04.667Z,1811
2018-06-11T08:32:05.397Z,1968
2018-06-11T08:33:06.119Z,1878
2018-06-11T08:34:06.854Z,1777
2018-06-11T08:35:07.584Z,1935
2018-06-11T08:36:08.310Z,1676
2018-06-11T08:37:09.050Z,1631
2018-06-11T08:38:09.782Z,1800
2018-06-11T08:39:10.510Z,1586
2018-06-11T08:40:11.239Z,1631
2018-06-11T08:41:11.970Z,1451
2018-06-11T08:42:12.700Z,1642
2018-06-11T08:43:13.470Z,3515
2018-06-11T08:44:14.186Z,3774
2018-06-11T08:45:14.911Z,1636
2018-06-11T08:46:15.644Z,1451
2018-06-11T08:47:16.618Z,1530
2018-06-11T08:48:17.380Z,1963
2018-06-11T08:49:18.178Z,1895
2018-06-11T08:50:19.157Z,1738
2018-06-11T08:51:20.065Z,1721
2018-06-11T08:52:20.818Z,1518
2018-06-11T08:53:21.826Z,1411
2018-06-11T08:54:22.650Z,1383
2018-06-11T08:55:23.384Z,1462
2018-06-11T08:56:24.116Z,1254
2018-06-11T08:57:24.856Z,1130
2018-06-11T08:58:25.586Z,1035
2018-06-11T08:59:26.324Z,1080
2018-06-11T09:00:27.057Z,1333
2018-06-11T09:01:27.779Z,1395
2018-06-11T09:02:28.534Z,1513
2018-06-11T09:03:29.266Z,2643
2018-06-11T09:04:30.007Z,2868
2018-06-11T09:05:30.729Z,1912
2018-06-11T09:06:31.466Z,1603
2018-06-11T09:07:32.197Z,1473
2018-06-11T09:08:32.923Z,1693
2018-06-11T09:09:33.665Z,4353
2018-06-11T09:10:34.394Z,4207
2018-06-11T09:11:35.135Z,3864
2018-06-11T09:12:35.909Z,3886
2018-06-11T09:13:36.609Z,3560
2018-06-11T09:14:37.336Z,3819
2018-06-11T09:15:38.324Z,3740
2018-06-11T09:16:39.057Z,3751
2018-06-11T09:17:39.776Z,2874
2018-06-11T09:18:40.904Z,1968
2018-06-11T09:19:41.633Z,1586
2018-06-11T09:20:42.368Z,2019
2018-06-11T09:21:43.098Z,2244
2018-06-11T09:22:43.828Z,2919
2018-06-11T09:23:44.554Z,2266
2018-06-11T09:24:45.293Z,4196
2018-06-11T09:25:46.017Z,4331
2018-06-11T09:26:46.748Z,1800
2018-06-11T09:27:47.730Z,3054
2018-06-11T09:28:48.477Z,3976
2018-06-11T09:29:49.208Z,3830
2018-06-11T09:30:49.951Z,3133
2018-06-11T09:31:50.668Z,3380
2018-06-11T09:32:51.654Z,3358
2018-06-11T09:33:52.721Z,3420
2018-06-11T09:34:53.801Z,3268
2018-06-11T09:35:54.543Z,3487
2018-06-11T09:36:55.277Z,3543
2018-06-11T09:37:56.010Z,3622
2018-06-11T09:38:56.749Z,3841
2018-06-11T09:39:57.503Z,3780
2018-06-11T09:40:58.306Z,3870
2018-06-11T09:41:59.032Z,4140
2018-06-11T09:42:59.775Z,3915
2018-06-11T09:45:01.399Z,3757
2018-06-11T09:46:02.547Z,3701
2018-06-11T09:47:03.533Z,3740
2018-06-11T09:48:04.259Z,3673
2018-06-11T09:49:05.339Z,2784
2018-06-11T09:50:06.254Z,1996
2018-06-11T09:51:07.381Z,3667
2018-06-11T09:52:08.323Z,3521
2018-06-11T09:53:09.203Z,3515
2018-06-11T09:54:09.952Z,3808
2018-06-11T09:55:10.694Z,3605
2018-06-11T09:56:11.678Z,3780
2018-06-11T09:57:13.068Z,3853
2018-06-11T09:58:13.805Z,3712
2018-06-11T09:59:14.536Z,3870
2018-06-11T10:00:15.271Z,3943
2018-06-11T10:01:16.006Z,4016
2018-06-11T10:02:17.176Z,3960
2018-06-11T10:03:17.908Z,3931
2018-06-11T10:04:18.643Z,3971
2018-06-11T10:05:19.378Z,4005
2018-06-11T10:06:20.112Z,3988
2018-06-11T10:07:20.948Z,3920
2018-06-11T10:08:21.674Z,3791
2018-06-11T10:09:22.438Z,2266
2018-06-11T10:10:23.171Z,4089
2018-06-11T10:11:23.905Z,4005
2018-06-11T10:12:24.718Z,1884
2018-06-11T10:13:25.729Z,1681
2018-06-11T10:14:26.471Z,3926
2018-06-11T10:15:27.223Z,3718
2018-06-11T10:16:27.963Z,3015
2018-06-11T10:17:28.962Z,3729
2018-06-11T10:18:30.041Z,2632
2018-06-11T10:19:30.780Z,3611
2018-06-11T10:20:31.522Z,3605
2018-06-11T10:21:32.254Z,3892
2018-06-11T10:22:32.987Z,3920
2018-06-11T10:23:33.791Z,3892
2018-06-11T10:24:34.567Z,3954
2018-06-11T10:25:35.333Z,3982
2018-06-11T10:26:36.065Z,4016
2018-06-11T10:27:36.824Z,4010
2018-06-11T10:28:37.549Z,3943
2018-06-11T10:29:38.333Z,3915
2018-06-11T10:30:39.064Z,3965
2018-06-11T10:31:39.799Z,3903
2018-06-11T10:32:40.522Z,3555
2018-06-11T10:33:41.254Z,3695
2018-06-11T10:34:42.041Z,3543
2018-06-11T10:35:42.782Z,3211
2018-06-11T10:36:43.527Z,3656
2018-06-11T10:37:44.271Z,2840
2018-06-11T10:38:45.082Z,3948
2018-06-11T10:39:46.187Z,2621
2018-06-11T10:40:46.921Z,3802
2018-06-11T10:41:47.662Z,3633
2018-06-11T10:42:48.393Z,2565
2018-06-11T10:43:49.132Z,3054
2018-06-11T10:44:49.863Z,3791
2018-06-11T10:45:50.587Z,4207
2018-06-11T10:46:51.574Z,4145
2018-06-11T10:47:52.308Z,4190
2018-06-11T10:48:53.044Z,4134
2018-06-11T10:49:53.775Z,4016
2018-06-11T10:50:54.508Z,3903
2018-06-11T10:51:55.340Z,4010
2018-06-11T10:52:56.334Z,3976
2018-06-11T10:53:57.065Z,2795
2018-06-11T10:54:57.805Z,2919
2018-06-11T10:55:58.550Z,4055
2018-06-11T10:56:59.293Z,3048
2018-06-11T10:58:00.218Z,3048
2018-06-11T10:59:00.905Z,3031
2018-06-11T11:00:01.887Z,3526
2018-06-11T11:01:02.612Z,3633
2018-06-11T11:02:03.348Z,3571
2018-06-11T11:03:04.083Z,1968
2018-06-11T11:04:04.821Z,1805
2018-06-11T11:05:05.604Z,2025
2018-06-11T11:06:06.351Z,3515
2018-06-11T11:07:07.090Z,3526
2018-06-11T11:08:07.814Z,3470
2018-06-11T11:09:08.552Z,3397
2018-06-11T11:10:09.288Z,3605
2018-06-11T11:11:10.031Z,2981
2018-06-11T11:12:10.755Z,2953
2018-06-11T11:13:11.537Z,3538
2018-06-11T11:14:12.231Z,4089
2018-06-11T11:15:12.977Z,4218
2018-06-11T11:16:13.720Z,4342
2018-06-11T11:17:14.459Z,4303
2018-06-11T11:18:15.205Z,4269
2018-06-11T11:19:15.950Z,4016
2018-06-11T11:20:16.691Z,2565
2018-06-11T11:21:17.438Z,1023
2018-06-11T11:22:18.178Z,1524
2018-06-11T11:23:19.571Z,1749
2018-06-11T11:24:20.479Z,2818
2018-06-11T11:25:21.224Z,3481
2018-06-11T11:26:21.959Z,3690
2018-06-11T11:27:22.708Z,3335
2018-06-11T11:28:23.501Z,4123
2018-06-11T11:29:24.235Z,4235
2018-06-11T11:30:24.977Z,4156
2018-06-11T11:31:25.710Z,4134
2018-06-11T11:32:26.462Z,4100
2018-06-11T11:33:27.235Z,4061
2018-06-11T11:34:27.974Z,3864
2018-06-11T11:35:28.722Z,3931
2018-06-11T11:36:29.702Z,3836
2018-06-11T11:37:30.446Z,3836
2018-06-11T11:38:31.228Z,3729
2018-06-11T11:39:31.978Z,3768
2018-06-11T11:40:32.725Z,3729
2018-06-11T11:41:33.460Z,3650
2018-06-11T11:42:34.448Z,3532
2018-06-11T11:43:35.180Z,3583
2018-06-11T11:44:35.932Z,3645
2018-06-11T11:45:36.668Z,2643
2018-06-11T11:46:37.415Z,3746
2018-06-11T11:47:38.412Z,3836
2018-06-11T11:48:39.135Z,3521
2018-06-11T11:49:39.875Z,3886
2018-06-11T11:50:40.667Z,3740
2018-06-11T11:51:41.405Z,3808
2018-06-11T11:52:42.388Z,3678
2018-06-11T11:53:43.112Z,3341
2018-06-11T11:54:43.856Z,2610
2018-06-11T11:55:44.600Z,3279
2018-06-11T11:56:45.335Z,3566
2018-06-11T11:57:46.080Z,3420
2018-06-11T11:58:46.817Z,3791
2018-06-11T11:59:47.556Z,3735
2018-06-11T12:00:48.302Z,3718
2018-06-11T12:01:49.025Z,3521
2018-06-11T12:02:49.765Z,3740
2018-06-11T12:03:50.516Z,3757
2018-06-11T12:04:51.254Z,3718
2018-06-11T12:05:51.994Z,3802
2018-06-11T12:06:52.734Z,3791
2018-06-11T12:07:53.718Z,3763
2018-06-11T12:08:54.466Z,3763
2018-06-11T12:09:55.207Z,3661
2018-06-11T12:10:55.953Z,3633
2018-06-11T12:11:56.684Z,3628
2018-06-11T12:12:57.426Z,3785
2018-06-11T12:13:58.161Z,3600
2018-06-11T12:14:59.145Z,3600
2018-06-11T12:15:59.893Z,3577
2018-06-11T12:17:00.616Z,3504
2018-06-11T12:18:01.614Z,3515
2018-06-11T12:19:02.395Z,3375
2018-06-11T12:20:03.127Z,3487
2018-06-11T12:21:03.867Z,3296
2018-06-11T12:22:04.602Z,3155
2018-06-11T12:23:05.339Z,3245
2018-06-11T12:24:06.084Z,3234
2018-06-11T12:25:06.813Z,3195
2018-06-11T12:26:07.539Z,3133
2018-06-11T12:27:08.264Z,3251
2018-06-11T12:28:09.006Z,3262
2018-06-11T12:29:09.759Z,3178
2018-06-11T12:30:10.510Z,3403
2018-06-11T12:31:11.389Z,2818
2018-06-11T12:32:12.127Z,3121
2018-06-11T12:33:12.882Z,3206
2018-06-11T12:34:13.622Z,3200
2018-06-11T12:35:14.362Z,3223
2018-06-11T12:36:15.244Z,3285
2018-06-11T12:37:16.222Z,3240
2018-06-11T12:38:16.971Z,3189
2018-06-11T12:39:17.715Z,3009
2018-06-11T12:40:18.454Z,3031
2018-06-11T12:41:19.195Z,3105
2018-06-11T12:42:20.331Z,3026
2018-06-11T12:43:21.088Z,2806
2018-06-11T12:44:21.826Z,2778
2018-06-11T12:45:22.561Z,2677
2018-06-11T12:46:23.289Z,2941
2018-06-11T12:47:24.175Z,3121
2018-06-11T12:48:24.925Z,2981
2018-06-11T12:49:25.663Z,2958
2018-06-11T12:50:26.408Z,3290
2018-06-11T12:51:27.160Z,3380
2018-06-11T12:52:27.895Z,3358
2018-06-11T12:53:28.625Z,3346
2018-06-11T12:54:29.614Z,3521
2018-06-11T12:55:30.359Z,3459
2018-06-11T12:56:31.098Z,3436
2018-06-11T12:57:31.828Z,3391
2018-06-11T12:58:32.618Z,3510
2018-06-11T12:59:33.361Z,3431
2018-06-11T13:00:34.109Z,3341
2018-06-11T13:01:34.876Z,3453
2018-06-11T13:02:35.574Z,3442
2018-06-11T13:03:36.313Z,3391
2018-06-11T13:04:37.049Z,3498
2018-06-11T13:05:37.775Z,3116
2018-06-11T13:06:38.508Z,3532
2018-06-11T13:07:39.240Z,3532
2018-06-11T13:08:40.227Z,3442
2018-06-11T13:09:40.965Z,3369
2018-06-11T13:10:41.704Z,3487
2018-06-11T13:11:42.770Z,3510
2018-06-11T13:12:43.509Z,3414
2018-06-11T13:13:44.274Z,3498
2018-06-11T13:14:45.021Z,3555
2018-06-11T13:15:45.771Z,3583
2018-06-11T13:16:46.500Z,3498
2018-06-11T13:17:47.229Z,3420
2018-06-11T13:18:48.218Z,3256
2018-06-11T13:19:48.957Z,3183
2018-06-11T13:20:49.902Z,3088
2018-06-11T13:21:50.677Z,3076
2018-06-11T13:22:51.411Z,3166
2018-06-11T13:23:52.142Z,3082
2018-06-11T13:24:52.888Z,2514
2018-06-11T13:25:53.621Z,3088
2018-06-11T13:26:54.361Z,3155
2018-06-11T13:27:55.098Z,3375
2018-06-11T13:28:56.117Z,3481
2018-06-11T13:29:56.860Z,3459
2018-06-11T13:30:57.596Z,3386
2018-06-11T13:31:58.323Z,3273
2018-06-11T13:32:59.061Z,3043
2018-06-11T13:33:59.800Z,2840
2018-06-11T13:35:00.545Z,2660
2018-06-11T13:36:01.283Z,2435
2018-06-11T13:37:02.110Z,2553
2018-06-11T13:38:03.315Z,2638
2018-06-11T13:39:04.305Z,2784
2018-06-11T13:40:05.235Z,2846
2018-06-11T13:41:06.278Z,2851
2018-06-11T13:42:07.012Z,2947
2018-06-11T13:43:08.032Z,1732
2018-06-11T13:44:08.755Z,3375
2018-06-11T13:45:09.755Z,3375
2018-06-11T13:46:10.493Z,3009
2018-06-11T13:47:11.241Z,3166
2018-06-11T13:48:11.974Z,3206
2018-06-11T13:49:12.707Z,3178
2018-06-11T13:50:13.497Z,3065
2018-06-11T13:51:14.185Z,3003
2018-06-11T13:52:14.929Z,2936
2018-06-11T13:53:15.921Z,1957
2018-06-11T13:54:16.807Z,2896
2018-06-11T13:55:17.557Z,2868
2018-06-11T13:56:18.302Z,2812
2018-06-11T13:57:19.039Z,2745
2018-06-11T13:58:19.779Z,2919
2018-06-11T13:59:20.566Z,2835
2018-06-11T14:00:21.312Z,2593